sensor_id;sensor_type;location;lat;lon;timestamp;P1;durP1;ratioP1;P2;durP2;ratioP2
14518;SDS011;7346;50.846;4.388;2022-07-29T00:00:38;7.15;;;1.70;;
14518;SDS011;7346;50.846;4.388;2022-07-29T00:03:05;6.05;;;1.90;;
14518;SDS011;7346;50.846;4.388;2022-07-29T00:05:32;5.72;;;1.73;;
14518;SDS011;7346;50.846;4.388;2022-07-29T00:08:00;6.38;;;1.80;;
14518;SDS011;7346;50.846;4.388;2022-07-29T00:10:27;4.35;;;1.98;;
14518;SDS011;7346;50.846;4.388;2022-07-29T00:12:54;6.70;;;1.65;;
14518;SDS011;7346;50.846;4.388;2022-07-29T00:15:21;5.72;;;1.55;;
14518;SDS011;7346;50.846;4.388;2022-07-29T00:17:48;5.97;;;1.73;;
14518;SDS011;7346;50.846;4.388;2022-07-29T00:20:15;5.03;;;2.03;;
14518;SDS011;7346;50.846;4.388;2022-07-29T00:22:44;5.88;;;1.42;;
14518;SDS011;7346;50.846;4.388;2022-07-29T00:25:13;3.40;;;1.60;;
14518;SDS011;7346;50.846;4.388;2022-07-29T00:27:40;7.72;;;1.83;;
14518;SDS011;7346;50.846;4.388;2022-07-29T00:30:07;6.20;;;1.80;;
14518;SDS011;7346;50.846;4.388;2022-07-29T00:32:34;1.98;;;1.50;;
14518;SDS011;7346;50.846;4.388;2022-07-29T00:35:01;3.85;;;1.42;;
14518;SDS011;7346;50.846;4.388;2022-07-29T00:37:46;7.22;;;1.85;;
14518;SDS011;7346;50.846;4.388;2022-07-29T00:40:14;5.30;;;1.60;;
14518;SDS011;7346;50.846;4.388;2022-07-29T00:42:41;5.18;;;1.77;;
14518;SDS011;7346;50.846;4.388;2022-07-29T00:45:09;5.75;;;1.60;;
14518;SDS011;7346;50.846;4.388;2022-07-29T00:47:36;7.57;;;1.70;;
14518;SDS011;7346;50.846;4.388;2022-07-29T00:50:04;5.35;;;1.63;;
14518;SDS011;7346;50.846;4.388;2022-07-29T00:52:32;7.47;;;1.90;;
14518;SDS011;7346;50.846;4.388;2022-07-29T00:54:59;4.72;;;1.80;;
14518;SDS011;7346;50.846;4.388;2022-07-29T00:57:28;5.53;;;1.85;;
14518;SDS011;7346;50.846;4.388;2022-07-29T00:59:55;5.07;;;1.60;;
14518;SDS011;7346;50.846;4.388;2022-07-29T01:02:21;4.15;;;1.63;;
14518;SDS011;7346;50.846;4.388;2022-07-29T01:04:48;9.48;;;2.00;;
14518;SDS011;7346;50.846;4.388;2022-07-29T01:07:16;9.40;;;1.85;;
14518;SDS011;7346;50.846;4.388;2022-07-29T01:09:44;4.38;;;1.25;;
14518;SDS011;7346;50.846;4.388;2022-07-29T01:12:13;3.42;;;1.65;;
14518;SDS011;7346;50.846;4.388;2022-07-29T01:14:44;4.05;;;1.60;;
14518;SDS011;7346;50.846;4.388;2022-07-29T01:17:14;3.97;;;1.50;;
14518;SDS011;7346;50.846;4.388;2022-07-29T01:19:48;5.05;;;1.63;;
14518;SDS011;7346;50.846;4.388;2022-07-29T01:22:24;2.67;;;1.48;;
14518;SDS011;7346;50.846;4.388;2022-07-29T01:27:52;5.18;;;1.60;;
14518;SDS011;7346;50.846;4.388;2022-07-29T01:30:32;5.70;;;2.05;;
14518;SDS011;7346;50.846;4.388;2022-07-29T01:33:02;4.93;;;1.70;;
14518;SDS011;7346;50.846;4.388;2022-07-29T01:35:35;6.93;;;1.75;;
14518;SDS011;7346;50.846;4.388;2022-07-29T01:38:08;6.20;;;1.88;;
14518;SDS011;7346;50.846;4.388;2022-07-29T01:40:40;6.32;;;1.80;;
14518;SDS011;7346;50.846;4.388;2022-07-29T01:43:11;2.83;;;1.40;;
14518;SDS011;7346;50.846;4.388;2022-07-29T01:45:43;4.00;;;1.55;;
14518;SDS011;7346;50.846;4.388;2022-07-29T01:48:15;4.43;;;1.42;;
14518;SDS011;7346;50.846;4.388;2022-07-29T01:50:45;4.40;;;1.63;;
14518;SDS011;7346;50.846;4.388;2022-07-29T01:53:17;5.00;;;1.42;;
14518;SDS011;7346;50.846;4.388;2022-07-29T01:55:49;4.38;;;1.50;;
14518;SDS011;7346;50.846;4.388;2022-07-29T01:58:17;6.63;;;1.48;;
14518;SDS011;7346;50.846;4.388;2022-07-29T02:00:47;2.95;;;1.45;;
14518;SDS011;7346;50.846;4.388;2022-07-29T02:03:15;5.35;;;1.80;;
14518;SDS011;7346;50.846;4.388;2022-07-29T02:05:45;6.10;;;1.67;;
14518;SDS011;7346;50.846;4.388;2022-07-29T02:08:14;3.25;;;1.40;;
14518;SDS011;7346;50.846;4.388;2022-07-29T02:10:43;3.55;;;1.40;;
14518;SDS011;7346;50.846;4.388;2022-07-29T02:13:11;7.10;;;1.40;;
14518;SDS011;7346;50.846;4.388;2022-07-29T02:15:39;5.80;;;1.83;;
14518;SDS011;7346;50.846;4.388;2022-07-29T02:18:11;3.30;;;1.85;;
14518;SDS011;7346;50.846;4.388;2022-07-29T02:20:42;3.03;;;1.50;;
14518;SDS011;7346;50.846;4.388;2022-07-29T02:23:13;6.72;;;1.67;;
14518;SDS011;7346;50.846;4.388;2022-07-29T02:25:43;2.55;;;1.48;;
14518;SDS011;7346;50.846;4.388;2022-07-29T02:28:11;6.07;;;1.45;;
14518;SDS011;7346;50.846;4.388;2022-07-29T02:30:40;4.75;;;1.40;;
14518;SDS011;7346;50.846;4.388;2022-07-29T02:33:08;4.00;;;1.50;;
14518;SDS011;7346;50.846;4.388;2022-07-29T02:35:39;3.63;;;1.40;;
14518;SDS011;7346;50.846;4.388;2022-07-29T02:38:07;4.00;;;1.60;;
14518;SDS011;7346;50.846;4.388;2022-07-29T02:40:55;7.60;;;1.70;;
14518;SDS011;7346;50.846;4.388;2022-07-29T02:43:24;4.05;;;1.73;;
14518;SDS011;7346;50.846;4.388;2022-07-29T02:45:52;7.20;;;1.60;;
14518;SDS011;7346;50.846;4.388;2022-07-29T02:48:23;5.90;;;1.58;;
14518;SDS011;7346;50.846;4.388;2022-07-29T02:51:05;4.30;;;1.55;;
14518;SDS011;7346;50.846;4.388;2022-07-29T02:53:38;5.53;;;1.30;;
14518;SDS011;7346;50.846;4.388;2022-07-29T02:56:08;5.60;;;1.88;;
14518;SDS011;7346;50.846;4.388;2022-07-29T02:58:40;4.82;;;1.70;;
14518;SDS011;7346;50.846;4.388;2022-07-29T03:01:12;5.82;;;1.83;;
14518;SDS011;7346;50.846;4.388;2022-07-29T03:03:44;3.47;;;1.50;;
14518;SDS011;7346;50.846;4.388;2022-07-29T03:06:13;2.47;;;1.60;;
14518;SDS011;7346;50.846;4.388;2022-07-29T03:08:41;3.05;;;1.50;;
14518;SDS011;7346;50.846;4.388;2022-07-29T03:11:10;5.95;;;1.92;;
14518;SDS011;7346;50.846;4.388;2022-07-29T03:13:38;6.35;;;1.60;;
14518;SDS011;7346;50.846;4.388;2022-07-29T03:16:06;6.43;;;1.90;;
14518;SDS011;7346;50.846;4.388;2022-07-29T03:18:34;6.70;;;1.70;;
14518;SDS011;7346;50.846;4.388;2022-07-29T03:21:03;4.68;;;1.52;;
14518;SDS011;7346;50.846;4.388;2022-07-29T03:23:30;6.50;;;2.05;;
14518;SDS011;7346;50.846;4.388;2022-07-29T03:25:57;5.47;;;1.88;;
14518;SDS011;7346;50.846;4.388;2022-07-29T03:28:24;5.70;;;1.70;;
14518;SDS011;7346;50.846;4.388;2022-07-29T03:30:52;4.55;;;1.70;;
14518;SDS011;7346;50.846;4.388;2022-07-29T03:33:20;4.43;;;1.90;;
14518;SDS011;7346;50.846;4.388;2022-07-29T03:35:47;4.15;;;2.03;;
14518;SDS011;7346;50.846;4.388;2022-07-29T03:38:15;5.15;;;2.08;;
14518;SDS011;7346;50.846;4.388;2022-07-29T03:40:42;7.18;;;1.90;;
14518;SDS011;7346;50.846;4.388;2022-07-29T03:43:14;6.32;;;2.05;;
14518;SDS011;7346;50.846;4.388;2022-07-29T03:45:42;6.15;;;1.75;;
14518;SDS011;7346;50.846;4.388;2022-07-29T03:48:14;7.55;;;2.28;;
14518;SDS011;7346;50.846;4.388;2022-07-29T03:50:44;4.22;;;1.70;;
14518;SDS011;7346;50.846;4.388;2022-07-29T03:53:11;9.00;;;2.00;;
14518;SDS011;7346;50.846;4.388;2022-07-29T03:55:41;4.82;;;1.60;;
14518;SDS011;7346;50.846;4.388;2022-07-29T03:58:09;5.30;;;1.90;;
14518;SDS011;7346;50.846;4.388;2022-07-29T04:00:38;5.03;;;2.17;;
14518;SDS011;7346;50.846;4.388;2022-07-29T04:03:06;6.40;;;2.38;;
14518;SDS011;7346;50.846;4.388;2022-07-29T04:05:34;10.98;;;1.98;;
14518;SDS011;7346;50.846;4.388;2022-07-29T04:08:01;4.57;;;1.70;;
14518;SDS011;7346;50.846;4.388;2022-07-29T04:10:28;6.40;;;1.95;;
14518;SDS011;7346;50.846;4.388;2022-07-29T04:12:57;4.63;;;1.88;;
14518;SDS011;7346;50.846;4.388;2022-07-29T04:15:24;10.02;;;2.70;;
14518;SDS011;7346;50.846;4.388;2022-07-29T04:17:52;6.72;;;1.80;;
14518;SDS011;7346;50.846;4.388;2022-07-29T04:20:19;8.32;;;2.20;;
14518;SDS011;7346;50.846;4.388;2022-07-29T04:22:46;7.30;;;2.17;;
14518;SDS011;7346;50.846;4.388;2022-07-29T04:25:13;7.20;;;2.40;;
14518;SDS011;7346;50.846;4.388;2022-07-29T04:27:39;7.45;;;2.35;;
14518;SDS011;7346;50.846;4.388;2022-07-29T04:30:26;4.18;;;2.20;;
14518;SDS011;7346;50.846;4.388;2022-07-29T04:32:53;5.88;;;2.25;;
14518;SDS011;7346;50.846;4.388;2022-07-29T04:35:23;8.32;;;2.60;;
14518;SDS011;7346;50.846;4.388;2022-07-29T04:37:50;7.95;;;3.05;;
14518;SDS011;7346;50.846;4.388;2022-07-29T04:40:17;10.82;;;2.60;;
14518;SDS011;7346;50.846;4.388;2022-07-29T04:42:44;4.95;;;2.45;;
14518;SDS011;7346;50.846;4.388;2022-07-29T04:45:11;8.68;;;2.75;;
14518;SDS011;7346;50.846;4.388;2022-07-29T04:47:39;9.77;;;3.20;;
14518;SDS011;7346;50.846;4.388;2022-07-29T04:50:07;13.75;;;2.80;;
14518;SDS011;7346;50.846;4.388;2022-07-29T04:52:35;9.23;;;2.85;;
14518;SDS011;7346;50.846;4.388;2022-07-29T04:55:02;11.00;;;2.88;;
14518;SDS011;7346;50.846;4.388;2022-07-29T04:57:30;10.27;;;3.00;;
14518;SDS011;7346;50.846;4.388;2022-07-29T04:59:57;7.90;;;2.83;;
14518;SDS011;7346;50.846;4.388;2022-07-29T05:02:24;9.25;;;2.80;;
14518;SDS011;7346;50.846;4.388;2022-07-29T05:04:53;7.43;;;2.80;;
14518;SDS011;7346;50.846;4.388;2022-07-29T05:07:20;8.50;;;2.90;;
14518;SDS011;7346;50.846;4.388;2022-07-29T05:09:46;10.88;;;3.10;;
14518;SDS011;7346;50.846;4.388;2022-07-29T05:12:14;7.50;;;2.85;;
14518;SDS011;7346;50.846;4.388;2022-07-29T05:14:40;8.50;;;2.88;;
14518;SDS011;7346;50.846;4.388;2022-07-29T05:17:07;5.80;;;2.60;;
14518;SDS011;7346;50.846;4.388;2022-07-29T05:19:34;4.72;;;2.63;;
14518;SDS011;7346;50.846;4.388;2022-07-29T05:22:03;7.93;;;2.95;;
14518;SDS011;7346;50.846;4.388;2022-07-29T05:24:30;7.63;;;2.75;;
14518;SDS011;7346;50.846;4.388;2022-07-29T05:26:57;8.10;;;2.97;;
14518;SDS011;7346;50.846;4.388;2022-07-29T05:29:24;9.50;;;3.00;;
14518;SDS011;7346;50.846;4.388;2022-07-29T05:31:51;8.38;;;2.95;;
14518;SDS011;7346;50.846;4.388;2022-07-29T05:34:18;6.53;;;2.60;;
14518;SDS011;7346;50.846;4.388;2022-07-29T05:36:45;11.00;;;2.63;;
14518;SDS011;7346;50.846;4.388;2022-07-29T05:39:13;5.78;;;2.58;;
14518;SDS011;7346;50.846;4.388;2022-07-29T05:41:40;8.82;;;2.78;;
14518;SDS011;7346;50.846;4.388;2022-07-29T05:44:07;6.28;;;2.40;;
14518;SDS011;7346;50.846;4.388;2022-07-29T05:46:34;7.38;;;2.67;;
14518;SDS011;7346;50.846;4.388;2022-07-29T05:49:04;4.80;;;2.50;;
14518;SDS011;7346;50.846;4.388;2022-07-29T05:51:31;8.05;;;2.58;;
14518;SDS011;7346;50.846;4.388;2022-07-29T05:54:00;8.52;;;3.00;;
14518;SDS011;7346;50.846;4.388;2022-07-29T05:56:29;5.47;;;2.40;;
14518;SDS011;7346;50.846;4.388;2022-07-29T05:58:56;4.10;;;2.80;;
14518;SDS011;7346;50.846;4.388;2022-07-29T06:01:23;6.43;;;2.92;;
14518;SDS011;7346;50.846;4.388;2022-07-29T06:03:51;5.55;;;2.50;;
14518;SDS011;7346;50.846;4.388;2022-07-29T06:06:18;7.70;;;2.75;;
14518;SDS011;7346;50.846;4.388;2022-07-29T06:08:45;4.60;;;2.75;;
14518;SDS011;7346;50.846;4.388;2022-07-29T06:11:11;6.03;;;2.50;;
14518;SDS011;7346;50.846;4.388;2022-07-29T06:13:40;22.50;;;3.20;;
14518;SDS011;7346;50.846;4.388;2022-07-29T06:16:07;5.10;;;2.95;;
14518;SDS011;7346;50.846;4.388;2022-07-29T06:18:34;6.70;;;3.33;;
14518;SDS011;7346;50.846;4.388;2022-07-29T06:21:01;3.28;;;2.72;;
14518;SDS011;7346;50.846;4.388;2022-07-29T06:23:33;4.93;;;2.47;;
14518;SDS011;7346;50.846;4.388;2022-07-29T06:26:00;5.97;;;3.15;;
14518;SDS011;7346;50.846;4.388;2022-07-29T06:28:27;7.95;;;2.90;;
14518;SDS011;7346;50.846;4.388;2022-07-29T06:30:55;5.20;;;3.03;;
14518;SDS011;7346;50.846;4.388;2022-07-29T06:33:23;6.72;;;2.72;;
14518;SDS011;7346;50.846;4.388;2022-07-29T06:35:50;9.70;;;3.13;;
14518;SDS011;7346;50.846;4.388;2022-07-29T06:38:17;9.18;;;3.42;;
14518;SDS011;7346;50.846;4.388;2022-07-29T06:40:44;3.92;;;3.00;;
14518;SDS011;7346;50.846;4.388;2022-07-29T06:43:27;5.35;;;3.00;;
14518;SDS011;7346;50.846;4.388;2022-07-29T06:45:58;7.32;;;2.95;;
14518;SDS011;7346;50.846;4.388;2022-07-29T06:48:26;5.18;;;2.80;;
14518;SDS011;7346;50.846;4.388;2022-07-29T06:50:54;5.82;;;2.95;;
14518;SDS011;7346;50.846;4.388;2022-07-29T06:53:21;5.03;;;2.70;;
14518;SDS011;7346;50.846;4.388;2022-07-29T06:55:48;5.47;;;3.10;;
14518;SDS011;7346;50.846;4.388;2022-07-29T06:58:15;6.22;;;3.20;;
14518;SDS011;7346;50.846;4.388;2022-07-29T07:00:44;9.93;;;2.90;;
14518;SDS011;7346;50.846;4.388;2022-07-29T07:03:13;5.22;;;2.85;;
14518;SDS011;7346;50.846;4.388;2022-07-29T07:05:40;5.25;;;3.50;;
14518;SDS011;7346;50.846;4.388;2022-07-29T07:08:08;7.22;;;2.80;;
14518;SDS011;7346;50.846;4.388;2022-07-29T07:10:35;5.22;;;3.20;;
14518;SDS011;7346;50.846;4.388;2022-07-29T07:13:02;4.43;;;2.60;;
14518;SDS011;7346;50.846;4.388;2022-07-29T07:15:30;7.90;;;2.92;;
14518;SDS011;7346;50.846;4.388;2022-07-29T07:17:57;4.18;;;2.60;;
14518;SDS011;7346;50.846;4.388;2022-07-29T07:20:26;5.47;;;2.63;;
14518;SDS011;7346;50.846;4.388;2022-07-29T07:22:53;8.85;;;3.05;;
14518;SDS011;7346;50.846;4.388;2022-07-29T07:25:20;5.13;;;3.00;;
14518;SDS011;7346;50.846;4.388;2022-07-29T07:27:47;6.47;;;2.97;;
14518;SDS011;7346;50.846;4.388;2022-07-29T07:30:14;7.90;;;3.40;;
14518;SDS011;7346;50.846;4.388;2022-07-29T07:32:41;7.03;;;3.30;;
14518;SDS011;7346;50.846;4.388;2022-07-29T07:35:08;7.25;;;3.03;;
14518;SDS011;7346;50.846;4.388;2022-07-29T07:37:38;9.75;;;3.53;;
14518;SDS011;7346;50.846;4.388;2022-07-29T07:40:07;10.75;;;3.03;;
14518;SDS011;7346;50.846;4.388;2022-07-29T07:42:36;6.65;;;3.20;;
14518;SDS011;7346;50.846;4.388;2022-07-29T07:45:03;8.20;;;3.47;;
14518;SDS011;7346;50.846;4.388;2022-07-29T07:47:31;11.40;;;3.95;;
14518;SDS011;7346;50.846;4.388;2022-07-29T07:49:58;6.60;;;3.55;;
14518;SDS011;7346;50.846;4.388;2022-07-29T07:52:25;5.80;;;3.50;;
14518;SDS011;7346;50.846;4.388;2022-07-29T07:54:53;5.80;;;3.88;;
14518;SDS011;7346;50.846;4.388;2022-07-29T07:57:20;8.07;;;3.55;;
14518;SDS011;7346;50.846;4.388;2022-07-29T07:59:47;7.72;;;3.85;;
14518;SDS011;7346;50.846;4.388;2022-07-29T08:02:14;9.75;;;4.00;;
14518;SDS011;7346;50.846;4.388;2022-07-29T08:04:41;11.15;;;4.30;;
14518;SDS011;7346;50.846;4.388;2022-07-29T08:07:08;12.65;;;4.10;;
14518;SDS011;7346;50.846;4.388;2022-07-29T08:09:35;10.75;;;5.10;;
14518;SDS011;7346;50.846;4.388;2022-07-29T08:12:06;10.73;;;3.65;;
14518;SDS011;7346;50.846;4.388;2022-07-29T08:14:33;8.02;;;3.45;;
14518;SDS011;7346;50.846;4.388;2022-07-29T08:17:00;11.98;;;3.45;;
14518;SDS011;7346;50.846;4.388;2022-07-29T08:19:27;5.97;;;3.10;;
14518;SDS011;7346;50.846;4.388;2022-07-29T08:21:54;6.43;;;2.95;;
14518;SDS011;7346;50.846;4.388;2022-07-29T08:24:21;6.93;;;2.90;;
14518;SDS011;7346;50.846;4.388;2022-07-29T08:27:07;3.95;;;2.75;;
14518;SDS011;7346;50.846;4.388;2022-07-29T08:29:34;4.63;;;2.40;;
14518;SDS011;7346;50.846;4.388;2022-07-29T08:32:01;6.22;;;2.75;;
14518;SDS011;7346;50.846;4.388;2022-07-29T08:34:29;4.18;;;2.40;;
14518;SDS011;7346;50.846;4.388;2022-07-29T08:36:56;8.25;;;2.72;;
14518;SDS011;7346;50.846;4.388;2022-07-29T08:39:23;4.32;;;2.65;;
14518;SDS011;7346;50.846;4.388;2022-07-29T08:41:50;5.30;;;2.75;;
14518;SDS011;7346;50.846;4.388;2022-07-29T08:44:19;7.22;;;2.92;;
14518;SDS011;7346;50.846;4.388;2022-07-29T08:46:47;7.03;;;2.72;;
14518;SDS011;7346;50.846;4.388;2022-07-29T08:49:14;5.47;;;2.53;;
14518;SDS011;7346;50.846;4.388;2022-07-29T08:51:41;9.90;;;2.55;;
14518;SDS011;7346;50.846;4.388;2022-07-29T08:54:09;5.90;;;2.20;;
14518;SDS011;7346;50.846;4.388;2022-07-29T08:56:37;5.32;;;2.10;;
14518;SDS011;7346;50.846;4.388;2022-07-29T08:59:06;8.23;;;2.60;;
14518;SDS011;7346;50.846;4.388;2022-07-29T09:01:36;6.55;;;2.40;;
14518;SDS011;7346;50.846;4.388;2022-07-29T09:04:05;6.32;;;2.72;;
14518;SDS011;7346;50.846;4.388;2022-07-29T09:06:37;4.05;;;1.98;;
14518;SDS011;7346;50.846;4.388;2022-07-29T09:09:10;5.15;;;2.30;;
14518;SDS011;7346;50.846;4.388;2022-07-29T09:11:38;8.50;;;2.08;;
14518;SDS011;7346;50.846;4.388;2022-07-29T09:14:05;4.68;;;1.98;;
14518;SDS011;7346;50.846;4.388;2022-07-29T09:16:47;5.10;;;2.03;;
14518;SDS011;7346;50.846;4.388;2022-07-29T09:19:19;6.80;;;2.20;;
14518;SDS011;7346;50.846;4.388;2022-07-29T09:21:54;4.65;;;1.70;;
14518;SDS011;7346;50.846;4.388;2022-07-29T09:24:24;5.20;;;2.30;;
14518;SDS011;7346;50.846;4.388;2022-07-29T09:26:53;3.85;;;1.90;;
14518;SDS011;7346;50.846;4.388;2022-07-29T09:29:20;3.90;;;1.88;;
14518;SDS011;7346;50.846;4.388;2022-07-29T09:31:51;6.18;;;2.30;;
14518;SDS011;7346;50.846;4.388;2022-07-29T09:34:23;3.95;;;2.08;;
14518;SDS011;7346;50.846;4.388;2022-07-29T09:36:51;5.78;;;1.75;;
14518;SDS011;7346;50.846;4.388;2022-07-29T09:39:27;6.22;;;1.67;;
14518;SDS011;7346;50.846;4.388;2022-07-29T09:41:56;10.18;;;2.22;;
14518;SDS011;7346;50.846;4.388;2022-07-29T09:44:24;5.28;;;2.00;;
14518;SDS011;7346;50.846;4.388;2022-07-29T09:46:57;7.78;;;2.10;;
14518;SDS011;7346;50.846;4.388;2022-07-29T09:49:30;8.85;;;1.98;;
14518;SDS011;7346;50.846;4.388;2022-07-29T09:52:03;5.18;;;2.42;;
14518;SDS011;7346;50.846;4.388;2022-07-29T09:54:31;3.42;;;1.67;;
14518;SDS011;7346;50.846;4.388;2022-07-29T09:57:02;6.22;;;2.20;;
14518;SDS011;7346;50.846;4.388;2022-07-29T09:59:30;5.70;;;2.55;;
14518;SDS011;7346;50.846;4.388;2022-07-29T10:01:59;5.50;;;2.00;;
14518;SDS011;7346;50.846;4.388;2022-07-29T10:07:08;9.02;;;2.08;;
14518;SDS011;7346;50.846;4.388;2022-07-29T10:09:35;3.33;;;1.90;;
14518;SDS011;7346;50.846;4.388;2022-07-29T10:12:06;8.02;;;2.20;;
14518;SDS011;7346;50.846;4.388;2022-07-29T10:14:36;5.35;;;2.20;;
14518;SDS011;7346;50.846;4.388;2022-07-29T10:17:05;6.05;;;1.80;;
14518;SDS011;7346;50.846;4.388;2022-07-29T10:19:34;5.03;;;1.73;;
14518;SDS011;7346;50.846;4.388;2022-07-29T10:22:06;5.70;;;2.33;;
14518;SDS011;7346;50.846;4.388;2022-07-29T10:24:34;6.40;;;2.00;;
14518;SDS011;7346;50.846;4.388;2022-07-29T10:27:02;5.53;;;1.58;;
14518;SDS011;7346;50.846;4.388;2022-07-29T10:29:31;7.18;;;1.90;;
14518;SDS011;7346;50.846;4.388;2022-07-29T10:32:10;3.97;;;1.63;;
14518;SDS011;7346;50.846;4.388;2022-07-29T10:34:50;3.75;;;1.77;;
14518;SDS011;7346;50.846;4.388;2022-07-29T10:37:46;3.60;;;1.60;;
14518;SDS011;7346;50.846;4.388;2022-07-29T10:40:23;5.18;;;1.90;;
14518;SDS011;7346;50.846;4.388;2022-07-29T10:43:17;5.10;;;1.52;;
14518;SDS011;7346;50.846;4.388;2022-07-29T10:45:49;9.45;;;1.88;;
14518;SDS011;7346;50.846;4.388;2022-07-29T10:48:23;5.30;;;2.00;;
14518;SDS011;7346;50.846;4.388;2022-07-29T10:50:54;5.78;;;1.85;;
14518;SDS011;7346;50.846;4.388;2022-07-29T10:53:22;6.93;;;2.15;;
14518;SDS011;7346;50.846;4.388;2022-07-29T10:55:50;7.30;;;1.80;;
14518;SDS011;7346;50.846;4.388;2022-07-29T10:58:18;4.18;;;1.77;;
14518;SDS011;7346;50.846;4.388;2022-07-29T11:00:46;7.60;;;2.00;;
14518;SDS011;7346;50.846;4.388;2022-07-29T11:06:11;4.15;;;1.73;;
14518;SDS011;7346;50.846;4.388;2022-07-29T11:08:39;4.20;;;1.73;;
14518;SDS011;7346;50.846;4.388;2022-07-29T11:14:05;5.95;;;2.17;;
14518;SDS011;7346;50.846;4.388;2022-07-29T11:19:28;5.38;;;1.98;;
14518;SDS011;7346;50.846;4.388;2022-07-29T11:21:55;6.13;;;2.03;;
14518;SDS011;7346;50.846;4.388;2022-07-29T11:24:23;5.70;;;1.73;;
14518;SDS011;7346;50.846;4.388;2022-07-29T11:27:06;4.65;;;2.05;;
14518;SDS011;7346;50.846;4.388;2022-07-29T11:29:38;3.65;;;2.00;;
14518;SDS011;7346;50.846;4.388;2022-07-29T11:32:10;10.23;;;2.45;;
14518;SDS011;7346;50.846;4.388;2022-07-29T11:34:41;6.80;;;2.25;;
14518;SDS011;7346;50.846;4.388;2022-07-29T11:37:18;6.85;;;2.35;;
14518;SDS011;7346;50.846;4.388;2022-07-29T11:42:44;6.90;;;2.65;;
14518;SDS011;7346;50.846;4.388;2022-07-29T11:45:16;7.45;;;2.35;;
14518;SDS011;7346;50.846;4.388;2022-07-29T11:47:50;5.95;;;2.95;;
14518;SDS011;7346;50.846;4.388;2022-07-29T11:50:28;5.68;;;2.88;;
14518;SDS011;7346;50.846;4.388;2022-07-29T11:53:00;5.53;;;2.50;;
14518;SDS011;7346;50.846;4.388;2022-07-29T11:55:29;6.93;;;2.40;;
14518;SDS011;7346;50.846;4.388;2022-07-29T11:58:00;11.65;;;3.40;;
14518;SDS011;7346;50.846;4.388;2022-07-29T12:00:29;5.72;;;2.72;;
14518;SDS011;7346;50.846;4.388;2022-07-29T12:02:58;6.63;;;3.10;;
14518;SDS011;7346;50.846;4.388;2022-07-29T12:05:35;7.15;;;2.65;;
14518;SDS011;7346;50.846;4.388;2022-07-29T12:08:04;5.10;;;2.65;;
14518;SDS011;7346;50.846;4.388;2022-07-29T12:10:35;7.55;;;2.70;;
14518;SDS011;7346;50.846;4.388;2022-07-29T12:13:02;9.10;;;2.70;;
14518;SDS011;7346;50.846;4.388;2022-07-29T12:15:30;6.03;;;3.10;;
14518;SDS011;7346;50.846;4.388;2022-07-29T12:17:57;9.52;;;2.63;;
14518;SDS011;7346;50.846;4.388;2022-07-29T12:20:25;8.55;;;2.65;;
14518;SDS011;7346;50.846;4.388;2022-07-29T12:22:55;7.55;;;2.83;;
14518;SDS011;7346;50.846;4.388;2022-07-29T12:25:23;10.43;;;2.80;;
14518;SDS011;7346;50.846;4.388;2022-07-29T12:27:58;6.80;;;2.60;;
14518;SDS011;7346;50.846;4.388;2022-07-29T12:30:34;5.50;;;2.60;;
14518;SDS011;7346;50.846;4.388;2022-07-29T12:33:12;9.23;;;2.47;;
14518;SDS011;7346;50.846;4.388;2022-07-29T12:35:40;6.07;;;2.78;;
14518;SDS011;7346;50.846;4.388;2022-07-29T12:38:10;6.38;;;2.60;;
14518;SDS011;7346;50.846;4.388;2022-07-29T12:40:39;5.85;;;2.72;;
14518;SDS011;7346;50.846;4.388;2022-07-29T12:43:10;6.53;;;2.55;;
14518;SDS011;7346;50.846;4.388;2022-07-29T12:45:39;4.38;;;2.50;;
14518;SDS011;7346;50.846;4.388;2022-07-29T12:48:08;7.95;;;2.50;;
14518;SDS011;7346;50.846;4.388;2022-07-29T12:50:35;7.22;;;2.10;;
14518;SDS011;7346;50.846;4.388;2022-07-29T12:53:11;4.38;;;2.40;;
14518;SDS011;7346;50.846;4.388;2022-07-29T12:55:40;4.80;;;1.92;;
14518;SDS011;7346;50.846;4.388;2022-07-29T12:58:08;4.60;;;2.13;;
14518;SDS011;7346;50.846;4.388;2022-07-29T13:00:35;6.28;;;2.30;;
14518;SDS011;7346;50.846;4.388;2022-07-29T13:03:02;7.95;;;2.85;;
14518;SDS011;7346;50.846;4.388;2022-07-29T13:05:40;7.47;;;2.65;;
14518;SDS011;7346;50.846;4.388;2022-07-29T13:08:13;6.50;;;2.42;;
14518;SDS011;7346;50.846;4.388;2022-07-29T13:10:41;7.20;;;2.70;;
14518;SDS011;7346;50.846;4.388;2022-07-29T13:13:09;5.15;;;1.98;;
14518;SDS011;7346;50.846;4.388;2022-07-29T13:15:38;8.18;;;2.00;;
14518;SDS011;7346;50.846;4.388;2022-07-29T13:20:55;9.43;;;2.20;;
14518;SDS011;7346;50.846;4.388;2022-07-29T13:23:24;4.35;;;1.90;;
14518;SDS011;7346;50.846;4.388;2022-07-29T13:25:52;3.75;;;1.83;;
14518;SDS011;7346;50.846;4.388;2022-07-29T13:28:18;6.95;;;1.67;;
14518;SDS011;7346;50.846;4.388;2022-07-29T13:30:46;5.85;;;1.88;;
14518;SDS011;7346;50.846;4.388;2022-07-29T13:33:13;8.07;;;1.88;;
14518;SDS011;7346;50.846;4.388;2022-07-29T13:35:40;16.83;;;2.05;;
14518;SDS011;7346;50.846;4.388;2022-07-29T13:38:07;8.43;;;1.70;;
14518;SDS011;7346;50.846;4.388;2022-07-29T13:40:36;6.00;;;2.00;;
14518;SDS011;7346;50.846;4.388;2022-07-29T13:43:02;7.00;;;1.80;;
14518;SDS011;7346;50.846;4.388;2022-07-29T13:45:29;6.90;;;1.60;;
14518;SDS011;7346;50.846;4.388;2022-07-29T13:47:56;7.35;;;1.92;;
14518;SDS011;7346;50.846;4.388;2022-07-29T13:50:23;8.57;;;1.77;;
14518;SDS011;7346;50.846;4.388;2022-07-29T13:52:50;4.68;;;1.70;;
14518;SDS011;7346;50.846;4.388;2022-07-29T13:55:17;8.48;;;2.00;;
14518;SDS011;7346;50.846;4.388;2022-07-29T13:57:49;9.07;;;2.00;;
14518;SDS011;7346;50.846;4.388;2022-07-29T14:00:16;6.55;;;1.88;;
14518;SDS011;7346;50.846;4.388;2022-07-29T14:02:45;8.80;;;2.08;;
14518;SDS011;7346;50.846;4.388;2022-07-29T14:05:12;5.85;;;1.60;;
14518;SDS011;7346;50.846;4.388;2022-07-29T14:07:39;8.48;;;2.00;;
14518;SDS011;7346;50.846;4.388;2022-07-29T14:10:06;7.22;;;1.67;;
14518;SDS011;7346;50.846;4.388;2022-07-29T14:12:34;6.82;;;1.67;;
14518;SDS011;7346;50.846;4.388;2022-07-29T14:15:02;4.40;;;1.58;;
14518;SDS011;7346;50.846;4.388;2022-07-29T14:17:30;4.82;;;1.65;;
14518;SDS011;7346;50.846;4.388;2022-07-29T14:19:57;7.20;;;2.88;;
14518;SDS011;7346;50.846;4.388;2022-07-29T14:22:24;4.28;;;1.60;;
14518;SDS011;7346;50.846;4.388;2022-07-29T14:24:51;3.00;;;1.40;;
14518;SDS011;7346;50.846;4.388;2022-07-29T14:27:18;6.20;;;1.60;;
14518;SDS011;7346;50.846;4.388;2022-07-29T14:29:45;5.22;;;1.92;;
14518;SDS011;7346;50.846;4.388;2022-07-29T14:32:13;2.60;;;1.40;;
14518;SDS011;7346;50.846;4.388;2022-07-29T14:34:40;3.88;;;1.58;;
14518;SDS011;7346;50.846;4.388;2022-07-29T14:37:08;6.38;;;1.77;;
14518;SDS011;7346;50.846;4.388;2022-07-29T14:39:35;5.40;;;1.73;;
14518;SDS011;7346;50.846;4.388;2022-07-29T14:42:03;5.28;;;2.00;;
14518;SDS011;7346;50.846;4.388;2022-07-29T14:44:30;2.22;;;1.50;;
14518;SDS011;7346;50.846;4.388;2022-07-29T14:46:57;5.03;;;1.73;;
14518;SDS011;7346;50.846;4.388;2022-07-29T14:49:25;3.42;;;1.35;;
14518;SDS011;7346;50.846;4.388;2022-07-29T14:51:53;4.57;;;1.58;;
14518;SDS011;7346;50.846;4.388;2022-07-29T14:54:20;4.97;;;1.40;;
14518;SDS011;7346;50.846;4.388;2022-07-29T14:56:47;5.45;;;1.90;;
14518;SDS011;7346;50.846;4.388;2022-07-29T14:59:16;11.05;;;1.70;;
14518;SDS011;7346;50.846;4.388;2022-07-29T15:01:44;5.85;;;1.85;;
14518;SDS011;7346;50.846;4.388;2022-07-29T15:04:10;6.40;;;1.52;;
14518;SDS011;7346;50.846;4.388;2022-07-29T15:06:39;6.50;;;1.80;;
14518;SDS011;7346;50.846;4.388;2022-07-29T15:09:08;8.25;;;1.55;;
14518;SDS011;7346;50.846;4.388;2022-07-29T15:11:34;3.00;;;1.30;;
14518;SDS011;7346;50.846;4.388;2022-07-29T15:14:01;4.57;;;1.65;;
14518;SDS011;7346;50.846;4.388;2022-07-29T15:16:28;4.75;;;1.60;;
14518;SDS011;7346;50.846;4.388;2022-07-29T15:18:55;4.82;;;1.50;;
14518;SDS011;7346;50.846;4.388;2022-07-29T15:21:22;4.22;;;1.70;;
14518;SDS011;7346;50.846;4.388;2022-07-29T15:23:51;11.43;;;1.50;;
14518;SDS011;7346;50.846;4.388;2022-07-29T15:26:18;7.35;;;1.65;;
14518;SDS011;7346;50.846;4.388;2022-07-29T15:28:45;5.53;;;1.30;;
14518;SDS011;7346;50.846;4.388;2022-07-29T15:31:11;3.60;;;1.65;;